Time;durP1;ratioP1;P1;durP2;ratioP2;P2;SDS_P1;SDS_P2;PMS_P1;PMS_P2;Temp;Humidity;BMP_temperature;BMP_pressure;BME280_temperature;BME280_humidity;BME280_pressure;Samples;Min_cycle;Max_cycle;Signal;HPM_P1;HPM_P2
2022/04/12 00:02:57;;;;;;;6.25;3.47;;;;;;;;;;6195971;28;20050;-88
2022/04/12 00:06:01;;;;;;;5.93;3.63;;;;;;;;;;6196198;28;20400;-86
2022/04/12 00:09:06;;;;;;;4.95;3.00;;;;;;;;;;6196397;28;20513;-86
2022/04/12 00:12:09;;;;;;;6.40;3.28;;;;;;;;;;6196019;28;20046;-87
2022/04/12 00:15:12;;;;;;;6.88;3.30;;;;;;;;;;6194364;28;20097;-87
2022/04/12 00:21:36;;;;;;;7.13;3.30;;;;;;;;;;6196255;28;20386;-85
2022/04/12 00:24:40;;;;;;;5.57;3.38;;;;;;;;;;6195908;28;20047;-85
2022/04/12 00:27:43;;;;;;;6.60;3.67;;;;;;;;;;6195329;28;20042;-86
2022/04/12 00:30:46;;;;;;;4.90;3.00;;;;;;;;;;6194789;28;20121;-85
2022/04/12 00:33:51;;;;;;;6.65;3.50;;;;;;;;;;6194493;28;20046;-88
2022/04/12 00:36:54;;;;;;;4.97;3.72;;;;;;;;;;6194328;28;20050;-84
2022/04/12 00:39:58;;;;;;;5.20;3.00;;;;;;;;;;6194265;28;20050;-86
2022/04/12 00:43:03;;;;;;;3.83;2.72;;;;;;;;;;6195532;28;20097;-84
2022/04/12 00:46:06;;;;;;;5.43;3.00;;;;;;;;;;6193367;28;20046;-85
2022/04/12 00:49:11;;;;;;;4.43;2.80;;;;;;;;;;6195232;28;20050;-84
2022/04/12 00:52:15;;;;;;;9.40;3.00;;;;;;;;;;6195221;28;20046;-84
2022/04/12 00:55:19;;;;;;;5.32;3.00;;;;;;;;;;6194748;28;20069;-84
2022/04/12 00:58:23;;;;;;;4.90;2.97;;;;;;;;;;6194125;28;20046;-87
2022/04/12 01:01:26;;;;;;;4.50;2.83;;;;;;;;;;6194982;28;20053;-89
2022/04/12 01:04:29;;;;;;;5.95;2.90;;;;;;;;;;6193680;28;20104;-90
2022/04/12 01:07:32;;;;;;;7.20;3.25;;;;;;;;;;6192854;28;20039;-88
2022/04/12 01:10:37;;;;;;;4.28;3.13;;;;;;;;;;6193285;28;20425;-89
2022/04/12 01:13:40;;;;;;;6.32;3.70;;;;;;;;;;6194847;28;20063;-89
2022/04/12 01:16:43;;;;;;;5.75;3.05;;;;;;;;;;6194101;28;20053;-88
2022/04/12 01:19:46;;;;;;;5.03;3.03;;;;;;;;;;6193914;28;20192;-89
2022/04/12 01:22:51;;;;;;;4.80;3.17;;;;;;;;;;6193244;28;20046;-90
2022/04/12 01:25:56;;;;;;;6.90;2.95;;;;;;;;;;6191263;28;20050;-89
2022/04/12 01:28:59;;;;;;;4.25;2.67;;;;;;;;;;6192550;28;20050;-88
2022/04/12 01:32:02;;;;;;;4.18;2.85;;;;;;;;;;6192957;28;20046;-88
2022/04/12 01:35:05;;;;;;;4.88;2.78;;;;;;;;;;6194593;28;20046;-88
2022/04/12 01:38:08;;;;;;;4.97;2.70;;;;;;;;;;6193345;28;20122;-87
2022/04/12 01:41:13;;;;;;;5.25;2.92;;;;;;;;;;6192322;28;20046;-87
2022/04/12 01:44:16;;;;;;;5.45;3.00;;;;;;;;;;6193018;28;20053;-86
2022/04/12 01:47:19;;;;;;;4.78;2.95;;;;;;;;;;6194075;28;20050;-85
2022/04/12 01:50:22;;;;;;;4.28;2.78;;;;;;;;;;6192245;28;20046;-85
2022/04/12 01:53:25;;;;;;;6.80;3.17;;;;;;;;;;6194142;28;20490;-86
2022/04/12 01:56:31;;;;;;;5.57;3.05;;;;;;;;;;6192744;28;20053;-87
2022/04/12 01:59:34;;;;;;;4.65;2.80;;;;;;;;;;6193406;28;20042;-88
2022/04/12 02:02:37;;;;;;;5.55;2.90;;;;;;;;;;6193500;28;20043;-86
2022/04/12 02:05:40;;;;;;;7.15;3.10;;;;;;;;;;6194168;28;20486;-89
2022/04/12 02:08:43;;;;;;;4.20;2.67;;;;;;;;;;6194077;28;20034;-89
2022/04/12 02:11:48;;;;;;;4.15;2.78;;;;;;;;;;6192134;28;20047;-89
2022/04/12 02:14:51;;;;;;;5.30;2.97;;;;;;;;;;6194063;28;20648;-92
2022/04/12 02:17:54;;;;;;;4.43;2.70;;;;;;;;;;6194484;28;20050;-91
2022/04/12 02:20:56;;;;;;;4.75;2.88;;;;;;;;;;6192898;28;20054;-90
2022/04/12 02:23:59;;;;;;;6.38;3.45;;;;;;;;;;6193487;28;20485;-89
2022/04/12 02:27:04;;;;;;;6.28;2.95;;;;;;;;;;6193865;28;20133;-89
2022/04/12 02:30:07;;;;;;;6.38;2.33;;;;;;;;;;6192941;28;20042;-88
2022/04/12 02:33:10;;;;;;;5.85;2.80;;;;;;;;;;6192964;28;20046;-88
2022/04/12 02:36:13;;;;;;;4.22;2.40;;;;;;;;;;6194031;28;20046;-89
2022/04/12 02:39:18;;;;;;;4.35;2.63;;;;;;;;;;6196238;28;20111;-90
2022/04/12 02:42:22;;;;;;;5.40;2.47;;;;;;;;;;6196487;28;20082;-91
2022/04/12 02:45:25;;;;;;;3.38;2.70;;;;;;;;;;6197147;28;20204;-89
2022/04/12 02:48:28;;;;;;;5.50;2.78;;;;;;;;;;6198486;28;20050;-90
2022/04/12 02:51:31;;;;;;;3.70;2.50;;;;;;;;;;6198179;28;20485;-89
2022/04/12 02:54:34;;;;;;;6.35;2.90;;;;;;;;;;6197710;28;20468;-90
2022/04/12 02:57:38;;;;;;;3.65;2.63;;;;;;;;;;6198921;28;20046;-89
2022/04/12 03:00:44;;;;;;;7.15;2.90;;;;;;;;;;6196550;28;20054;-88
2022/04/12 03:03:47;;;;;;;5.55;2.85;;;;;;;;;;6197024;28;20050;-85
2022/04/12 03:06:50;;;;;;;5.88;2.65;;;;;;;;;;6196326;28;20053;-85
2022/04/12 03:09:53;;;;;;;5.55;2.63;;;;;;;;;;6197675;28;20409;-89
2022/04/12 03:12:57;;;;;;;5.45;3.15;;;;;;;;;;6196540;28;20061;-86
2022/04/12 03:16:03;;;;;;;4.80;2.50;;;;;;;;;;6197292;28;20050;-89
2022/04/12 03:19:06;;;;;;;4.90;2.90;;;;;;;;;;6196577;28;20072;-85
2022/04/12 03:22:09;;;;;;;4.35;2.58;;;;;;;;;;6196909;28;20111;-86
2022/04/12 03:25:12;;;;;;;4.38;2.78;;;;;;;;;;6195456;28;20093;-85
2022/04/12 03:28:16;;;;;;;4.43;2.60;;;;;;;;;;6198001;28;20054;-85
2022/04/12 03:31:19;;;;;;;5.20;2.60;;;;;;;;;;6197508;28;20046;-85
2022/04/12 03:34:22;;;;;;;6.50;2.60;;;;;;;;;;6196480;28;20046;-85
2022/04/12 03:37:25;;;;;;;4.25;2.50;;;;;;;;;;6196717;28;20069;-89
2022/04/12 03:40:30;;;;;;;4.00;2.50;;;;;;;;;;6195946;28;20054;-89
2022/04/12 03:43:35;;;;;;;4.85;2.60;;;;;;;;;;6195017;28;20042;-87
2022/04/12 03:46:38;;;;;;;5.32;2.75;;;;;;;;;;6195866;28;20380;-87
2022/04/12 03:49:41;;;;;;;6.63;2.95;;;;;;;;;;6195945;28;20043;-88
2022/04/12 03:52:44;;;;;;;4.63;2.60;;;;;;;;;;6196632;28;20129;-81
2022/04/12 03:55:49;;;;;;;4.47;2.60;;;;;;;;;;6195936;28;20050;-84
2022/04/12 03:58:57;;;;;;;7.45;2.92;;;;;;;;;;6196999;28;20057;-83
2022/04/12 04:02:00;;;;;;;7.18;2.92;;;;;;;;;;6196521;28;20057;-83
2022/04/12 04:05:04;;;;;;;6.18;2.92;;;;;;;;;;6195625;28;20050;-79
2022/04/12 04:08:07;;;;;;;4.50;2.75;;;;;;;;;;6195746;28;20050;-80
2022/04/12 04:11:12;;;;;;;6.32;3.15;;;;;;;;;;6195755;28;20613;-80
2022/04/12 04:14:17;;;;;;;5.88;2.72;;;;;;;;;;6195605;28;20062;-81
2022/04/12 04:17:21;;;;;;;4.57;2.75;;;;;;;;;;6195160;28;20046;-80
2022/04/12 04:20:24;;;;;;;8.70;3.08;;;;;;;;;;6194428;28;20046;-81
2022/04/12 04:23:27;;;;;;;4.85;3.10;;;;;;;;;;6191997;28;20046;-81
2022/04/12 04:26:31;;;;;;;4.38;2.78;;;;;;;;;;6191314;28;20042;-81
2022/04/12 04:29:35;;;;;;;5.38;2.85;;;;;;;;;;6192965;28;20042;-81
2022/04/12 04:32:42;;;;;;;5.45;2.80;;;;;;;;;;6193549;28;20050;-80
2022/04/12 04:35:46;;;;;;;6.75;3.03;;;;;;;;;;6191065;28;20046;-80
2022/04/12 04:38:49;;;;;;;7.90;2.83;;;;;;;;;;6194762;28;20449;-80
2022/04/12 04:41:52;;;;;;;5.03;2.78;;;;;;;;;;6195539;28;20165;-79
2022/04/12 04:44:56;;;;;;;7.40;2.95;;;;;;;;;;6193821;28;20046;-79
2022/04/12 04:48:00;;;;;;;6.05;2.90;;;;;;;;;;6194268;28;20038;-80
2022/04/12 04:51:03;;;;;;;4.15;2.70;;;;;;;;;;6195167;28;20042;-79
2022/04/12 04:54:06;;;;;;;7.32;3.20;;;;;;;;;;6194266;28;20441;-81
2022/04/12 04:57:09;;;;;;;5.63;2.70;;;;;;;;;;6192908;28;20046;-81
2022/04/12 05:00:15;;;;;;;5.32;2.88;;;;;;;;;;6192795;28;20056;-80
2022/04/12 05:03:18;;;;;;;7.18;2.88;;;;;;;;;;6195053;28;20121;-79
2022/04/12 05:06:21;;;;;;;7.70;3.45;;;;;;;;;;6194369;28;20061;-80
2022/04/12 05:09:24;;;;;;;6.30;3.28;;;;;;;;;;6193739;28;20042;-82
2022/04/12 05:12:27;;;;;;;8.43;3.55;;;;;;;;;;6194573;28;20046;-81
2022/04/12 05:15:34;;;;;;;7.13;3.10;;;;;;;;;;6194856;28;20054;-81
2022/04/12 05:18:38;;;;;;;6.63;3.03;;;;;;;;;;6193290;28;20052;-82
2022/04/12 05:21:41;;;;;;;7.30;3.53;;;;;;;;;;6192451;28;20477;-81
2022/04/12 05:24:44;;;;;;;8.02;3.05;;;;;;;;;;6194693;28;20050;-81
2022/04/12 05:27:47;;;;;;;7.22;3.22;;;;;;;;;;6192653;28;20050;-81
2022/04/12 05:30:54;;;;;;;10.07;3.10;;;;;;;;;;6193508;28;20121;-81
2022/04/12 05:33:57;;;;;;;5.93;3.05;;;;;;;;;;6193935;28;20046;-81
2022/04/12 05:37:00;;;;;;;8.13;3.03;;;;;;;;;;6192647;28;20050;-79
2022/04/12 05:40:04;;;;;;;7.32;3.50;;;;;;;;;;6191809;28;20050;-80
2022/04/12 05:43:07;;;;;;;5.03;2.65;;;;;;;;;;6193541;28;20073;-81
2022/04/12 05:46:11;;;;;;;5.68;2.83;;;;;;;;;;6192950;28;20050;-80
2022/04/12 05:49:14;;;;;;;4.93;3.13;;;;;;;;;;6191503;28;20046;-80
2022/04/12 05:52:17;;;;;;;5.40;3.20;;;;;;;;;;6193115;28;20049;-81
2022/04/12 05:55:22;;;;;;;7.93;3.40;;;;;;;;;;6193935;28;20467;-79
2022/04/12 05:58:25;;;;;;;5.97;4.30;;;;;;;;;;6193348;28;20047;-80
2022/04/12 06:01:30;;;;;;;8.75;4.47;;;;;;;;;;6192645;28;20221;-79
2022/04/12 06:04:33;;;;;;;7.15;4.32;;;;;;;;;;6193316;28;20054;-80
2022/04/12 06:07:36;;;;;;;9.98;5.90;;;;;;;;;;6192405;28;20541;-81
2022/04/12 06:10:39;;;;;;;9.65;4.38;;;;;;;;;;6192670;28;20133;-81
2022/04/12 06:13:42;;;;;;;9.18;4.63;;;;;;;;;;6192696;28;20063;-81
2022/04/12 06:16:46;;;;;;;10.30;4.97;;;;;;;;;;6193990;28;20062;-81
2022/04/12 06:19:49;;;;;;;9.18;5.20;;;;;;;;;;6193300;28;20396;-81
2022/04/12 06:22:53;;;;;;;14.23;5.93;;;;;;;;;;6193010;28;20046;-80
2022/04/12 06:25:56;;;;;;;9.68;5.38;;;;;;;;;;6193401;28;20047;-78
2022/04/12 06:29:01;;;;;;;11.15;5.80;;;;;;;;;;6193835;28;20053;-80
2022/04/12 06:32:06;;;;;;;7.60;5.07;;;;;;;;;;6192266;28;20051;-81
2022/04/12 06:35:10;;;;;;;12.47;5.47;;;;;;;;;;6191762;28;20461;-81
2022/04/12 06:38:13;;;;;;;9.38;4.78;;;;;;;;;;6191854;28;20182;-81
2022/04/12 06:41:16;;;;;;;7.45;4.50;;;;;;;;;;6191096;28;20076;-79
2022/04/12 06:44:19;;;;;;;10.77;4.60;;;;;;;;;;6192957;28;20050;-80
2022/04/12 06:47:23;;;;;;;9.27;4.85;;;;;;;;;;6191988;28;20393;-81
2022/04/12 06:50:27;;;;;;;6.20;3.85;;;;;;;;;;6191632;28;20612;-81
2022/04/12 06:53:30;;;;;;;8.93;4.28;;;;;;;;;;6191074;28;20046;-81
2022/04/12 06:56:33;;;;;;;7.00;3.67;;;;;;;;;;6192989;28;20280;-81
2022/04/12 06:59:36;;;;;;;7.85;4.15;;;;;;;;;;6193401;28;20042;-79
2022/04/12 07:02:41;;;;;;;6.97;3.50;;;;;;;;;;6192088;28;20523;-82
2022/04/12 07:05:45;;;;;;;7.75;3.60;;;;;;;;;;6193484;28;20050;-81
2022/04/12 07:08:48;;;;;;;7.45;3.80;;;;;;;;;;6193000;28;20397;-81
2022/04/12 07:11:51;;;;;;;6.57;3.80;;;;;;;;;;6191440;28;20042;-81
2022/04/12 07:14:54;;;;;;;9.73;3.90;;;;;;;;;;6192229;28;20137;-81
2022/04/12 07:18:00;;;;;;;9.87;4.30;;;;;;;;;;6193812;28;20058;-82
2022/04/12 07:21:03;;;;;;;10.15;3.83;;;;;;;;;;6193147;28;20675;-81
2022/04/12 07:24:07;;;;;;;7.82;3.88;;;;;;;;;;6192126;28;20088;-80
2022/04/12 07:27:10;;;;;;;7.72;3.80;;;;;;;;;;6196828;28;20057;-81
2022/04/12 07:30:13;;;;;;;8.98;4.28;;;;;;;;;;6197725;28;20057;-80
2022/04/12 07:33:39;;;;;;;6.50;3.95;;;;;;;;;;6196780;28;20051;-80
2022/04/12 07:36:47;;;;;;;12.05;4.80;;;;;;;;;;6196334;28;20050;-81
2022/04/12 07:39:50;;;;;;;13.65;5.35;;;;;;;;;;6196930;28;20469;-82
2022/04/12 07:42:53;;;;;;;9.73;4.90;;;;;;;;;;6195916;28;20050;-79
2022/04/12 07:45:56;;;;;;;10.60;5.07;;;;;;;;;;6194888;28;20482;-78
2022/04/12 07:49:20;;;;;;;8.27;4.85;;;;;;;;;;6196483;28;20050;-82
2022/04/12 07:52:23;;;;;;;9.40;4.78;;;;;;;;;;6195424;28;20788;-81
2022/04/12 07:55:26;;;;;;;8.23;4.53;;;;;;;;;;6196625;28;20046;-81
2022/04/12 07:58:29;;;;;;;8.80;4.50;;;;;;;;;;6194494;28;20042;-79
2022/04/12 08:01:33;;;;;;;12.50;5.60;;;;;;;;;;6196159;28;20046;-79
2022/04/12 08:04:41;;;;;;;12.27;5.72;;;;;;;;;;6196380;28;20051;-79
2022/04/12 08:07:47;;;;;;;9.13;4.85;;;;;;;;;;6195434;28;20069;-80
2022/04/12 08:10:52;;;;;;;11.68;5.03;;;;;;;;;;6195795;28;20047;-80
2022/04/12 08:13:56;;;;;;;9.27;5.05;;;;;;;;;;6194831;28;20096;-80
2022/04/12 08:16:59;;;;;;;8.10;4.80;;;;;;;;;;6194716;28;20176;-80
2022/04/12 08:20:05;;;;;;;9.32;4.82;;;;;;;;;;6195531;28;20050;-82
2022/04/12 08:23:08;;;;;;;;;;;;;;;;;;6196537;28;20592;-81
2022/04/12 08:26:13;;;;;;;12.95;5.90;;;;;;;;;;6195692;28;19926;-81
2022/04/12 08:29:16;;;;;;;8.68;5.32;;;;;;;;;;6193778;28;20169;-82
2022/04/12 08:32:20;;;;;;;10.13;5.47;;;;;;;;;;6195561;28;20046;-81
2022/04/12 08:35:24;;;;;;;7.85;5.10;;;;;;;;;;6195827;28;20048;-81
2022/04/12 08:38:27;;;;;;;9.45;4.75;;;;;;;;;;6195349;28;20057;-82
2022/04/12 08:41:30;;;;;;;12.05;6.07;;;;;;;;;;6193501;28;20053;-81
2022/04/12 08:44:34;;;;;;;12.25;6.30;;;;;;;;;;6195202;28;20050;-82
2022/04/12 08:47:37;;;;;;;14.02;6.10;;;;;;;;;;6194355;28;20062;-82
2022/04/12 08:50:42;;;;;;;11.13;5.57;;;;;;;;;;6192882;28;20042;-83
2022/04/12 08:53:46;;;;;;;10.38;5.15;;;;;;;;;;6193450;28;20217;-82
2022/04/12 08:56:49;;;;;;;10.80;5.43;;;;;;;;;;6194985;28;20500;-79
2022/04/12 08:59:54;;;;;;;62.70;35.50;;;;;;;;;;6195140;28;20421;-81
2022/04/12 09:02:59;;;;;;;13.07;6.32;;;;;;;;;;6194134;28;20140;-79
2022/04/12 09:06:04;;;;;;;13.05;8.48;;;;;;;;;;6194502;28;20034;-81
2022/04/12 09:09:10;;;;;;;13.35;7.18;;;;;;;;;;6194892;28;20050;-80
2022/04/12 09:12:14;;;;;;;12.95;6.25;;;;;;;;;;6193704;28;20069;-81
2022/04/12 09:15:17;;;;;;;14.85;7.00;;;;;;;;;;6193975;28;20050;-80
2022/04/12 09:18:32;;;;;;;11.20;6.53;;;;;;;;;;6194682;28;20046;-79
2022/04/12 09:21:35;;;;;;;;;;;;;;;;;;6194702;28;20053;-79
2022/04/12 09:24:43;;;;;;;15.10;6.43;;;;;;;;;;6192541;28;19921;-81
2022/04/12 09:27:49;;;;;;;9.52;6.15;;;;;;;;;;6194375;28;20049;-81
2022/04/12 09:30:55;;;;;;;10.50;5.32;;;;;;;;;;6193107;28;20053;-83
2022/04/12 09:33:58;;;;;;;12.93;5.57;;;;;;;;;;6192025;28;20050;-80
2022/04/12 09:37:01;;;;;;;10.18;5.65;;;;;;;;;;6192219;28;20616;-80
2022/04/12 09:40:07;;;;;;;9.15;5.45;;;;;;;;;;6194285;28;20054;-80
2022/04/12 09:43:12;;;;;;;12.18;5.88;;;;;;;;;;6191639;28;20125;-81
2022/04/12 09:46:17;;;;;;;12.02;5.35;;;;;;;;;;6192691;28;20053;-80
2022/04/12 09:49:20;;;;;;;10.85;5.72;;;;;;;;;;6191365;28;20153;-81
2022/04/12 09:52:23;;;;;;;9.93;5.40;;;;;;;;;;6193674;28;20109;-81
2022/04/12 09:55:35;;;;;;;9.63;4.82;;;;;;;;;;6193183;28;20061;-81
2022/04/12 09:58:46;;;;;;;10.07;4.70;;;;;;;;;;6192211;28;20046;-80
2022/04/12 10:01:49;;;;;;;7.40;4.32;;;;;;;;;;6192736;28;20536;-81
2022/04/12 10:04:53;;;;;;;9.52;5.10;;;;;;;;;;6191944;28;20050;-81
2022/04/12 10:07:59;;;;;;;10.93;4.50;;;;;;;;;;6192065;28;20049;-81
2022/04/12 10:11:08;;;;;;;10.40;6.00;;;;;;;;;;6193444;28;20046;-81
2022/04/12 10:14:11;;;;;;;15.32;8.38;;;;;;;;;;6193384;28;20086;-80
2022/04/12 10:17:15;;;;;;;25.20;14.15;;;;;;;;;;6192610;28;20054;-81
2022/04/12 10:20:18;;;;;;;10.20;5.35;;;;;;;;;;6192308;28;20397;-80
2022/04/12 10:23:23;;;;;;;11.38;4.97;;;;;;;;;;6192230;28;20062;-79
2022/04/12 10:26:29;;;;;;;11.05;5.13;;;;;;;;;;6192566;28;20047;-81
2022/04/12 10:29:32;;;;;;;;;;;;;;;;;;6193567;28;20046;-80
2022/04/12 10:32:35;;;;;;;9.40;4.47;;;;;;;;;;6193311;28;19925;-83
2022/04/12 10:36:02;;;;;;;7.18;4.38;;;;;;;;;;6193421;28;20097;-79
2022/04/12 10:39:11;;;;;;;11.43;5.18;;;;;;;;;;6191060;28;20057;-81
2022/04/12 10:42:18;;;;;;;9.55;4.82;;;;;;;;;;6192060;28;20046;-80
2022/04/12 10:45:28;;;;;;;9.48;5.13;;;;;;;;;;6193265;28;20046;-81
2022/04/12 10:48:31;;;;;;;7.85;4.68;;;;;;;;;;6191718;28;20057;-81
2022/04/12 10:51:38;;;;;;;6.95;4.32;;;;;;;;;;6192601;28;20046;-79
2022/04/12 10:54:42;;;;;;;9.60;4.70;;;;;;;;;;6193000;28;20047;-83
2022/04/12 10:57:46;;;;;;;7.50;4.20;;;;;;;;;;6192955;28;20240;-82
2022/04/12 11:00:49;;;;;;;9.07;4.83;;;;;;;;;;6196299;28;20089;-81
2022/04/12 11:03:53;;;;;;;10.02;5.28;;;;;;;;;;6196910;28;20046;-84
2022/04/12 11:06:59;;;;;;;9.45;5.45;;;;;;;;;;6197498;28;20057;-82
2022/04/12 11:10:08;;;;;;;8.15;4.78;;;;;;;;;;6195907;28;20619;-86
2022/04/12 11:13:13;;;;;;;10.80;4.85;;;;;;;;;;6197158;28;20049;-86
2022/04/12 11:16:18;;;;;;;10.35;4.75;;;;;;;;;;6197747;28;20043;-86
2022/04/12 11:19:22;;;;;;;7.13;4.55;;;;;;;;;;6198007;28;20531;-87
2022/04/12 11:22:42;;;;;;;11.27;5.35;;;;;;;;;;6196468;28;20050;-86
2022/04/12 11:25:49;;;;;;;7.10;4.70;;;;;;;;;;6196069;28;20049;-85
2022/04/12 11:28:55;;;;;;;10.02;5.45;;;;;;;;;;6196990;28;20050;-86
2022/04/12 11:31:58;;;;;;;10.05;5.68;;;;;;;;;;6197190;28;20093;-84
2022/04/12 11:35:04;;;;;;;9.25;5.75;;;;;;;;;;6195304;28;20068;-85
2022/04/12 11:38:07;;;;;;;8.45;4.80;;;;;;;;;;6196378;28;20042;-83
2022/04/12 11:41:10;;;;;;;9.52;5.22;;;;;;;;;;6195795;28;20052;-84
2022/04/12 11:44:15;;;;;;;8.18;5.00;;;;;;;;;;6194746;28;20437;-84
2022/04/12 11:47:19;;;;;;;9.57;5.50;;;;;;;;;;6196413;28;20428;-87
2022/04/12 11:50:22;;;;;;;8.85;5.28;;;;;;;;;;6196409;28;20413;-86
2022/04/12 11:53:49;;;;;;;9.18;5.57;;;;;;;;;;6195201;28;20054;-88
2022/04/12 11:57:03;;;;;;;11.25;5.53;;;;;;;;;;6194300;28;20477;-86
2022/04/12 12:00:08;;;;;;;10.30;5.43;;;;;;;;;;6196253;28;20073;-86
2022/04/12 12:03:16;;;;;;;11.68;5.30;;;;;;;;;;6194896;28;20054;-80
2022/04/12 12:06:19;;;;;;;;;;;;;;;;;;6195969;28;20054;-83
2022/04/12 12:09:22;;;;;;;9.88;6.10;;;;;;;;;;6195946;28;19951;-83
2022/04/12 12:12:32;;;;;;;11.18;5.72;;;;;;;;;;6195011;28;20057;-83
2022/04/12 12:15:37;;;;;;;8.50;6.38;;;;;;;;;;6194356;28;20520;-82
2022/04/12 12:18:40;;;;;;;9.85;5.55;;;;;;;;;;6194978;28;20129;-83
2022/04/12 12:21:48;;;;;;;10.00;5.75;;;;;;;;;;6195806;28;20057;-83
2022/04/12 12:24:52;;;;;;;11.27;6.10;;;;;;;;;;6196047;28;20417;-82
2022/04/12 12:27:55;;;;;;;9.47;5.70;;;;;;;;;;6195359;28;20050;-83
2022/04/12 12:31:01;;;;;;;8.77;5.53;;;;;;;;;;6195586;28;20356;-83
2022/04/12 12:34:25;;;;;;;11.02;5.20;;;;;;;;;;6195524;28;20046;-81
2022/04/12 12:37:28;;;;;;;7.50;5.13;;;;;;;;;;6194131;28;20046;-82
2022/04/12 12:40:32;;;;;;;10.77;5.53;;;;;;;;;;6194425;28;20053;-82
2022/04/12 12:43:35;;;;;;;8.73;5.70;;;;;;;;;;6194044;28;20078;-81
2022/04/12 12:46:40;;;;;;;8.18;5.20;;;;;;;;;;6195332;28;20042;-84
2022/04/12 12:49:42;;;;;;;;;;;;;;;;;;6194060;28;20125;-83
2022/04/12 12:52:46;;;;;;;13.77;5.97;;;;;;;;;;6194528;28;20448;-81
2022/04/12 12:55:49;;;;;;;10.65;5.80;;;;;;;;;;6194758;28;20066;-82
2022/04/12 12:59:07;;;;;;;8.30;5.32;;;;;;;;;;6195384;28;20054;-83
2022/04/12 13:02:12;;;;;;;10.15;6.32;;;;;;;;;;6192531;28;20050;-82
2022/04/12 13:05:18;;;;;;;10.13;5.80;;;;;;;;;;6193384;28;20057;-80
2022/04/12 13:08:22;;;;;;;9.65;5.45;;;;;;;;;;6194918;28;20050;-81
2022/04/12 13:11:25;;;;;;;10.15;5.50;;;;;;;;;;6192999;28;20061;-80
2022/04/12 13:14:28;;;;;;;9.45;6.00;;;;;;;;;;6193802;28;20058;-81
2022/04/12 13:17:35;;;;;;;10.73;6.03;;;;;;;;;;6192643;28;20050;-81
2022/04/12 13:20:38;;;;;;;10.43;5.57;;;;;;;;;;6194437;28;20046;-82
2022/04/12 13:23:44;;;;;;;8.25;5.85;;;;;;;;;;6192823;28;20378;-82
2022/04/12 13:26:47;;;;;;;10.90;5.95;;;;;;;;;;6193861;28;20069;-80
2022/04/12 13:29:50;;;;;;;11.13;5.80;;;;;;;;;;6194039;28;20493;-82
2022/04/12 13:32:54;;;;;;;9.57;5.50;;;;;;;;;;6192133;28;20046;-81
2022/04/12 13:35:57;;;;;;;8.90;5.60;;;;;;;;;;6191195;28;20326;-81
2022/04/12 13:39:00;;;;;;;10.60;6.18;;;;;;;;;;6191368;28;20054;-81
2022/04/12 13:42:05;;;;;;;10.38;5.97;;;;;;;;;;6191981;28;20053;-81
2022/04/12 13:45:08;;;;;;;8.90;5.70;;;;;;;;;;6189748;28;20133;-81
2022/04/12 13:48:13;;;;;;;10.77;5.55;;;;;;;;;;6192276;28;20113;-81
2022/04/12 13:51:16;;;;;;;9.80;5.33;;;;;;;;;;6192478;28;20058;-80
2022/04/12 13:54:19;;;;;;;11.73;6.00;;;;;;;;;;6192181;28;20058;-81
2022/04/12 13:57:22;;;;;;;10.23;6.07;;;;;;;;;;6193587;28;20046;-81
2022/04/12 14:00:25;;;;;;;7.78;5.28;;;;;;;;;;6193492;28;20046;-81
2022/04/12 14:03:29;;;;;;;9.50;5.82;;;;;;;;;;6193377;28;20420;-81
2022/04/12 14:06:34;;;;;;;19.42;6.05;;;;;;;;;;6192773;28;20057;-80
2022/04/12 14:09:40;;;;;;;9.48;5.45;;;;;;;;;;6192092;28;20520;-82
2022/04/12 14:12:45;;;;;;;9.52;5.07;;;;;;;;;;6193669;28;20559;-81
2022/04/12 14:15:48;;;;;;;7.68;5.30;;;;;;;;;;6192428;28;20493;-81
2022/04/12 14:18:52;;;;;;;9.75;5.82;;;;;;;;;;6193193;28;20047;-81
2022/04/12 14:21:55;;;;;;;11.32;6.50;;;;;;;;;;6191747;28;20042;-80
2022/04/12 14:25:00;;;;;;;9.75;5.85;;;;;;;;;;6192866;28;20050;-81
2022/04/12 14:28:02;;;;;;;11.98;6.65;;;;;;;;;;6191527;28;20082;-82
2022/04/12 14:31:06;;;;;;;15.40;6.75;;;;;;;;;;6192967;28;20559;-82
2022/04/12 14:34:11;;;;;;;12.20;6.28;;;;;;;;;;6195237;28;20053;-82
2022/04/12 14:37:14;;;;;;;10.50;5.90;;;;;;;;;;6196093;28;20053;-82
2022/04/12 14:40:17;;;;;;;9.85;6.15;;;;;;;;;;6197780;28;20050;-81
2022/04/12 14:43:20;;;;;;;8.48;5.40;;;;;;;;;;6198027;28;20053;-82
2022/04/12 14:46:23;;;;;;;12.07;5.70;;;;;;;;;;6197694;28;20453;-81
2022/04/12 14:49:30;;;;;;;9.80;5.55;;;;;;;;;;6197636;28;20412;-82
2022/04/12 14:52:33;;;;;;;10.57;5.87;;;;;;;;;;6197859;28;20125;-82
2022/04/12 14:55:39;;;;;;;13.15;7.05;;;;;;;;;;6196872;28;20042;-81
2022/04/12 14:58:42;;;;;;;10.02;6.07;;;;;;;;;;6197346;28;20049;-81
2022/04/12 15:01:45;;;;;;;7.93;5.30;;;;;;;;;;6196325;28;20069;-82
2022/04/12 15:04:53;;;;;;;13.77;5.88;;;;;;;;;;6197758;28;20443;-81
2022/04/12 15:07:56;;;;;;;10.95;5.70;;;;;;;;;;6195607;28;20113;-80
2022/04/12 15:11:01;;;;;;;;;;;;;;;;;;6196412;28;20176;-80
2022/04/12 15:14:04;;;;;;;10.23;5.97;;;;;;;;;;6195147;28;20381;-81
2022/04/12 15:17:07;;;;;;;10.20;5.75;;;;;;;;;;6197062;28;20047;-80
2022/04/12 15:20:14;;;;;;;12.85;6.35;;;;;;;;;;6196307;28;20046;-82
2022/04/12 15:23:17;;;;;;;12.52;6.30;;;;;;;;;;6195588;28;20050;-77
2022/04/12 15:26:22;;;;;;;13.88;6.78;;;;;;;;;;6196255;28;20050;-77
2022/04/12 15:29:27;;;;;;;9.18;5.50;;;;;;;;;;6196545;28;20108;-77
2022/04/12 15:32:30;;;;;;;11.20;5.82;;;;;;;;;;6197053;28;20043;-82
2022/04/12 15:35:35;;;;;;;12.93;5.78;;;;;;;;;;6196883;28;20046;-82
2022/04/12 15:38:38;;;;;;;13.55;6.22;;;;;;;;;;6196625;28;20057;-81
2022/04/12 15:41:41;;;;;;;12.60;5.88;;;;;;;;;;6194883;28;20042;-81
2022/04/12 15:44:44;;;;;;;12.63;5.43;;;;;;;;;;6195519;28;20038;-81
2022/04/12 15:47:47;;;;;;;10.70;6.18;;;;;;;;;;6196172;28;20053;-80
2022/04/12 15:50:52;;;;;;;11.20;6.07;;;;;;;;;;6195213;28;20054;-81
2022/04/12 15:53:55;;;;;;;10.70;6.25;;;;;;;;;;6196711;28;20078;-82
2022/04/12 15:56:58;;;;;;;11.98;6.25;;;;;;;;;;6195817;28;20053;-81
2022/04/12 16:00:04;;;;;;;10.30;6.38;;;;;;;;;;6195873;28;20047;-80
2022/04/12 16:03:07;;;;;;;11.05;6.28;;;;;;;;;;6195916;28;20046;-84
2022/04/12 16:06:11;;;;;;;11.93;5.68;;;;;;;;;;6194759;28;20042;-83
2022/04/12 16:09:14;;;;;;;13.27;6.40;;;;;;;;;;6195496;28;20586;-83
2022/04/12 16:12:17;;;;;;;14.50;6.03;;;;;;;;;;6193381;28;20053;-83
2022/04/12 16:15:20;;;;;;;19.58;6.10;;;;;;;;;;6192356;28;20456;-83
2022/04/12 16:18:23;;;;;;;10.15;5.60;;;;;;;;;;6192101;28;20052;-83
2022/04/12 16:21:27;;;;;;;11.80;6.15;;;;;;;;;;6192545;28;20051;-82
2022/04/12 16:24:32;;;;;;;12.60;5.47;;;;;;;;;;6195051;28;20097;-81
2022/04/12 16:27:35;;;;;;;11.63;5.45;;;;;;;;;;6196349;28;20057;-80
2022/04/12 16:30:38;;;;;;;12.48;5.80;;;;;;;;;;6195712;28;20065;-83
2022/04/12 16:33:41;;;;;;;29.55;16.75;;;;;;;;;;6195198;28;20054;-83
2022/04/12 16:36:45;;;;;;;34.30;18.50;;;;;;;;;;6195429;28;20073;-82
2022/04/12 16:39:49;;;;;;;18.40;5.97;;;;;;;;;;6194888;28;20401;-83
2022/04/12 16:42:51;;;;;;;12.85;6.03;;;;;;;;;;6193331;28;20168;-82
2022/04/12 16:45:55;;;;;;;13.25;5.72;;;;;;;;;;6194104;28;20046;-83
2022/04/12 16:48:59;;;;;;;14.05;5.90;;;;;;;;;;6194684;28;20042;-81
2022/04/12 16:52:04;;;;;;;9.98;5.57;;;;;;;;;;6194368;28;20560;-80
2022/04/12 16:55:07;;;;;;;9.02;4.93;;;;;;;;;;6194402;28;20078;-82
2022/04/12 16:58:11;;;;;;;11.63;5.13;;;;;;;;;;6193329;28;20042;-82
2022/04/12 17:01:14;;;;;;;9.70;4.75;;;;;;;;;;6191590;28;20038;-82
2022/04/12 17:04:17;;;;;;;12.05;4.93;;;;;;;;;;6191186;28;20121;-82
2022/04/12 17:07:21;;;;;;;11.07;4.45;;;;;;;;;;6192105;28;20105;-80
2022/04/12 17:10:24;;;;;;;7.77;4.30;;;;;;;;;;6191773;28;20050;-82
2022/04/12 17:13:27;;;;;;;9.20;3.97;;;;;;;;;;6189014;28;20128;-80
2022/04/12 17:16:33;;;;;;;8.43;4.10;;;;;;;;;;6190141;28;20456;-83
2022/04/12 17:19:36;;;;;;;9.70;3.78;;;;;;;;;;6191148;28;20046;-81
2022/04/12 17:22:40;;;;;;;15.23;4.35;;;;;;;;;;6192128;28;20050;-81
2022/04/12 17:25:43;;;;;;;10.90;4.28;;;;;;;;;;6191180;28;20054;-81
2022/04/12 17:28:46;;;;;;;11.77;5.10;;;;;;;;;;6193818;28;20054;-81
2022/04/12 17:31:50;;;;;;;10.40;4.50;;;;;;;;;;6194894;28;20173;-82
2022/04/12 17:34:53;;;;;;;16.05;5.15;;;;;;;;;;6193420;28;20046;-81
2022/04/12 17:37:57;;;;;;;15.40;4.57;;;;;;;;;;6194481;28;20488;-81
2022/04/12 17:41:01;;;;;;;12.73;4.40;;;;;;;;;;6193250;28;20506;-80
2022/04/12 17:44:05;;;;;;;10.70;4.90;;;;;;;;;;6192837;28;20551;-82
2022/04/12 17:47:10;;;;;;;11.75;5.20;;;;;;;;;;6192474;28;20057;-82
2022/04/12 17:50:13;;;;;;;11.63;4.90;;;;;;;;;;6193901;28;20418;-81
2022/04/12 17:53:18;;;;;;;11.18;4.38;;;;;;;;;;6194235;28;20058;-81
2022/04/12 17:56:23;;;;;;;10.88;4.43;;;;;;;;;;6193205;28;20066;-82
2022/04/12 17:59:26;;;;;;;11.85;4.22;;;;;;;;;;6193577;28;20050;-82
2022/04/12 18:02:29;;;;;;;15.93;5.38;;;;;;;;;;6192319;28;20109;-82
2022/04/12 18:05:34;;;;;;;12.85;5.10;;;;;;;;;;6191776;28;20049;-82
2022/04/12 18:08:40;;;;;;;11.93;4.97;;;;;;;;;;6193476;28;20054;-82
2022/04/12 18:11:43;;;;;;;16.45;6.68;;;;;;;;;;6193732;28;20052;-82
2022/04/12 18:14:46;;;;;;;15.30;6.35;;;;;;;;;;6191957;28;20062;-81
2022/04/12 18:17:52;;;;;;;12.85;6.50;;;;;;;;;;6192823;28;20409;-81
2022/04/12 18:20:54;;;;;;;11.65;5.28;;;;;;;;;;6193451;28;20043;-81
2022/04/12 18:23:59;;;;;;;9.73;4.90;;;;;;;;;;6193651;28;20043;-82
2022/04/12 18:27:02;;;;;;;12.10;4.43;;;;;;;;;;6192511;28;20620;-81